RJDA(METAR)
02/18 15:00
METAR RJDA 180600Z 05004KT 360V100 CAVOK 10/05 Q1022 RMK A3020=
戻る
トップページへ戻る
IMOC Co,.Ltd.